sensor_id;sensor_type;location;lat;lon;timestamp;pressure;altitude;pressure_sealevel;temperature;humidity
13553;BME280;6847;48.830;9.116;2023-03-25T00:00:13;97278.47;;;11.13;73.13
13553;BME280;6847;48.830;9.116;2023-03-25T00:02:56;97295.59;;;11.08;72.78
13553;BME280;6847;48.830;9.116;2023-03-25T00:05:26;97285.03;;;11.07;73.26
13553;BME280;6847;48.830;9.116;2023-03-25T00:07:53;97194.94;;;10.50;72.49
13553;BME280;6847;48.830;9.116;2023-03-25T00:10:23;97280.75;;;11.06;73.03
13553;BME280;6847;48.830;9.116;2023-03-25T00:12:52;97288.28;;;11.09;73.20
13553;BME280;6847;48.830;9.116;2023-03-25T00:15:21;97296.91;;;11.11;72.30
13553;BME280;6847;48.830;9.116;2023-03-25T00:17:48;97282.56;;;11.10;72.92
13553;BME280;6847;48.830;9.116;2023-03-25T00:20:17;97292.06;;;11.08;72.38
13553;BME280;6847;48.830;9.116;2023-03-25T00:22:44;97285.03;;;11.07;73.27
13553;BME280;6847;48.830;9.116;2023-03-25T00:25:13;97294.78;;;11.08;72.12
13553;BME280;6847;48.830;9.116;2023-03-25T00:27:44;97297.50;;;11.08;72.42
13553;BME280;6847;48.830;9.116;2023-03-25T00:30:15;97294.88;;;11.03;72.19
13553;BME280;6847;48.830;9.116;2023-03-25T00:32:48;97294.94;;;10.98;72.58
13553;BME280;6847;48.830;9.116;2023-03-25T00:35:18;97288.00;;;10.92;73.14
13553;BME280;6847;48.830;9.116;2023-03-25T00:37:48;97258.50;;;10.71;72.44
13553;BME280;6847;48.830;9.116;2023-03-25T00:40:21;97290.63;;;10.97;72.83
13553;BME280;6847;48.830;9.116;2023-03-25T00:42:48;97288.44;;;10.99;73.16
13553;BME280;6847;48.830;9.116;2023-03-25T00:45:17;97293.50;;;11.05;72.21
13553;BME280;6847;48.830;9.116;2023-03-25T00:47:48;97201.09;;;10.56;72.17
13553;BME280;6847;48.830;9.116;2023-03-25T00:50:16;97273.03;;;11.13;72.70
13553;BME280;6847;48.830;9.116;2023-03-25T00:52:43;97268.13;;;11.15;72.64
13553;BME280;6847;48.830;9.116;2023-03-25T00:55:10;97270.34;;;11.13;72.47
13553;BME280;6847;48.830;9.116;2023-03-25T00:57:42;97270.91;;;11.10;71.96
13553;BME280;6847;48.830;9.116;2023-03-25T01:00:12;97259.09;;;11.06;72.74
13553;BME280;6847;48.830;9.116;2023-03-25T01:02:40;97256.94;;;11.03;72.20
13553;BME280;6847;48.830;9.116;2023-03-25T01:05:11;97272.19;;;10.99;72.64
13553;BME280;6847;48.830;9.116;2023-03-25T01:07:39;97259.25;;;10.96;71.96
13553;BME280;6847;48.830;9.116;2023-03-25T01:10:08;97261.94;;;10.96;72.22
13553;BME280;6847;48.830;9.116;2023-03-25T01:12:36;97257.63;;;10.95;72.74
13553;BME280;6847;48.830;9.116;2023-03-25T01:15:08;97090.38;;;9.84;71.79
13553;BME280;6847;48.830;9.116;2023-03-25T01:17:34;97208.41;;;10.55;72.74
13553;BME280;6847;48.830;9.116;2023-03-25T01:20:01;97270.72;;;10.88;72.26
13553;BME280;6847;48.830;9.116;2023-03-25T01:22:31;97121.66;;;9.90;72.39
13553;BME280;6847;48.830;9.116;2023-03-25T01:25:00;97268.09;;;10.83;72.13
13553;BME280;6847;48.830;9.116;2023-03-25T01:27:27;97254.03;;;10.81;72.32
13553;BME280;6847;48.830;9.116;2023-03-25T01:29:54;97248.63;;;10.81;72.37
13553;BME280;6847;48.830;9.116;2023-03-25T01:32:29;97134.16;;;10.05;72.16
13553;BME280;6847;48.830;9.116;2023-03-25T01:34:57;97239.41;;;10.82;71.65
13553;BME280;6847;48.830;9.116;2023-03-25T01:37:23;97255.09;;;10.85;72.28
13553;BME280;6847;48.830;9.116;2023-03-25T01:39:53;97239.63;;;10.85;72.25
13553;BME280;6847;48.830;9.116;2023-03-25T01:42:20;97251.75;;;10.88;72.14
13553;BME280;6847;48.830;9.116;2023-03-25T01:45:13;97240.88;;;10.93;72.52
13553;BME280;6847;48.830;9.116;2023-03-25T01:47:44;97250.09;;;10.92;72.29
13553;BME280;6847;48.830;9.116;2023-03-25T01:50:12;97245.69;;;10.96;71.90
13553;BME280;6847;48.830;9.116;2023-03-25T01:52:43;97241.88;;;10.97;71.87
13553;BME280;6847;48.830;9.116;2023-03-25T01:55:14;97240.78;;;10.98;71.74
13553;BME280;6847;48.830;9.116;2023-03-25T01:57:47;97238.06;;;10.98;72.26
13553;BME280;6847;48.830;9.116;2023-03-25T02:00:19;97185.00;;;10.64;71.89
13553;BME280;6847;48.830;9.116;2023-03-25T02:02:47;97222.44;;;10.95;71.92
13553;BME280;6847;48.830;9.116;2023-03-25T02:05:21;97219.19;;;10.93;71.48
13553;BME280;6847;48.830;9.116;2023-03-25T02:07:50;97217.88;;;10.90;71.95
13553;BME280;6847;48.830;9.116;2023-03-25T02:10:20;97207.03;;;10.90;72.21
13553;BME280;6847;48.830;9.116;2023-03-25T02:12:48;97214.38;;;10.90;71.89
13553;BME280;6847;48.830;9.116;2023-03-25T02:15:16;97046.09;;;9.80;72.16
13553;BME280;6847;48.830;9.116;2023-03-25T02:18:07;97188.66;;;10.73;72.47
13553;BME280;6847;48.830;9.116;2023-03-25T02:20:48;97227.63;;;10.91;72.07
13553;BME280;6847;48.830;9.116;2023-03-25T02:23:39;97224.91;;;10.91;71.92
13553;BME280;6847;48.830;9.116;2023-03-25T02:26:26;97224.03;;;10.96;72.63
13553;BME280;6847;48.830;9.116;2023-03-25T02:29:13;97197.28;;;10.75;72.29
13553;BME280;6847;48.830;9.116;2023-03-25T02:32:05;97237.69;;;11.04;72.17
13553;BME280;6847;48.830;9.116;2023-03-25T02:34:47;97252.53;;;11.07;72.29
13553;BME280;6847;48.830;9.116;2023-03-25T02:38:04;97253.03;;;10.95;71.78
13553;BME280;6847;48.830;9.116;2023-03-25T02:40:44;97306.28;;;11.00;72.55
13553;BME280;6847;48.830;9.116;2023-03-25T02:43:17;97319.47;;;10.88;72.30
13553;BME280;6847;48.830;9.116;2023-03-25T02:45:49;97294.56;;;10.48;71.04
13553;BME280;6847;48.830;9.116;2023-03-25T02:48:20;97273.06;;;9.90;71.06
13553;BME280;6847;48.830;9.116;2023-03-25T02:50:52;97304.38;;;9.96;71.52
13553;BME280;6847;48.830;9.116;2023-03-25T02:53:26;97308.63;;;9.79;71.98
13553;BME280;6847;48.830;9.116;2023-03-25T02:56:01;97290.91;;;9.68;72.16
13553;BME280;6847;48.830;9.116;2023-03-25T02:58:29;97273.38;;;9.60;72.71
13553;BME280;6847;48.830;9.116;2023-03-25T03:00:59;97263.97;;;9.57;72.76
13553;BME280;6847;48.830;9.116;2023-03-25T03:03:27;97259.69;;;9.51;72.41
13553;BME280;6847;48.830;9.116;2023-03-25T03:05:58;97254.09;;;9.43;72.92
13553;BME280;6847;48.830;9.116;2023-03-25T03:08:49;97244.38;;;9.42;73.05
13553;BME280;6847;48.830;9.116;2023-03-25T03:11:23;97245.81;;;9.34;73.35
13553;BME280;6847;48.830;9.116;2023-03-25T03:14:10;97238.06;;;9.27;73.41
13553;BME280;6847;48.830;9.116;2023-03-25T03:16:46;97223.56;;;9.18;73.99
13553;BME280;6847;48.830;9.116;2023-03-25T03:19:24;97240.16;;;9.31;73.46
13553;BME280;6847;48.830;9.116;2023-03-25T03:21:58;97231.28;;;9.30;73.32
13553;BME280;6847;48.830;9.116;2023-03-25T03:24:31;97225.09;;;9.30;73.53
13553;BME280;6847;48.830;9.116;2023-03-25T03:27:06;97228.88;;;9.28;74.06
13553;BME280;6847;48.830;9.116;2023-03-25T03:29:38;97239.66;;;9.28;74.09
13553;BME280;6847;48.830;9.116;2023-03-25T03:32:12;97242.88;;;9.31;73.89
13553;BME280;6847;48.830;9.116;2023-03-25T03:34:46;97258.53;;;9.34;73.47
13553;BME280;6847;48.830;9.116;2023-03-25T03:37:18;97250.41;;;9.34;73.55
13553;BME280;6847;48.830;9.116;2023-03-25T03:39:51;97245.88;;;9.29;74.21
13553;BME280;6847;48.830;9.116;2023-03-25T03:42:28;97264.97;;;9.38;74.06
13553;BME280;6847;48.830;9.116;2023-03-25T03:45:01;97268.22;;;9.40;73.90
13553;BME280;6847;48.830;9.116;2023-03-25T03:47:35;97279.75;;;9.45;74.02
13553;BME280;6847;48.830;9.116;2023-03-25T03:50:06;97251.50;;;9.33;74.55
13553;BME280;6847;48.830;9.116;2023-03-25T03:52:38;97285.31;;;9.59;74.65
13553;BME280;6847;48.830;9.116;2023-03-25T03:55:11;97275.59;;;9.58;74.49
13553;BME280;6847;48.830;9.116;2023-03-25T03:57:43;97209.53;;;9.16;74.89
13553;BME280;6847;48.830;9.116;2023-03-25T04:00:17;97290.66;;;9.64;74.25
13553;BME280;6847;48.830;9.116;2023-03-25T04:02:49;97290.66;;;9.64;74.04
13553;BME280;6847;48.830;9.116;2023-03-25T04:05:22;97182.72;;;8.96;74.01
13553;BME280;6847;48.830;9.116;2023-03-25T04:07:58;97277.66;;;9.66;74.15
13553;BME280;6847;48.830;9.116;2023-03-25T04:10:36;97290.09;;;9.67;74.27
13553;BME280;6847;48.830;9.116;2023-03-25T04:13:11;97150.50;;;8.76;74.66
13553;BME280;6847;48.830;9.116;2023-03-25T04:15:41;97304.72;;;9.61;74.39
13553;BME280;6847;48.830;9.116;2023-03-25T04:18:11;97311.75;;;9.62;74.18
13553;BME280;6847;48.830;9.116;2023-03-25T04:20:38;97316.06;;;9.63;74.47
13553;BME280;6847;48.830;9.116;2023-03-25T04:23:10;97316.06;;;9.63;74.50
13553;BME280;6847;48.830;9.116;2023-03-25T04:25:44;97258.53;;;9.34;74.24
13553;BME280;6847;48.830;9.116;2023-03-25T04:28:18;97311.22;;;9.60;73.95
13553;BME280;6847;48.830;9.116;2023-03-25T04:30:59;97308.03;;;9.58;74.22
13553;BME280;6847;48.830;9.116;2023-03-25T04:33:34;97298.56;;;9.55;74.75
13553;BME280;6847;48.830;9.116;2023-03-25T04:36:01;97301.56;;;9.54;73.88
13553;BME280;6847;48.830;9.116;2023-03-25T04:38:31;97302.13;;;9.51;74.32
13553;BME280;6847;48.830;9.116;2023-03-25T04:40:59;97304.81;;;9.51;74.22
13553;BME280;6847;48.830;9.116;2023-03-25T04:43:31;97312.72;;;9.47;74.17
13553;BME280;6847;48.830;9.116;2023-03-25T04:45:58;97293.59;;;9.39;74.47
13553;BME280;6847;48.830;9.116;2023-03-25T04:48:28;97297.06;;;9.44;74.61
13553;BME280;6847;48.830;9.116;2023-03-25T04:50:56;97262.97;;;9.19;74.50
13553;BME280;6847;48.830;9.116;2023-03-25T04:53:24;97300.63;;;9.40;74.45
13553;BME280;6847;48.830;9.116;2023-03-25T04:55:51;97297.41;;;9.38;74.34
13553;BME280;6847;48.830;9.116;2023-03-25T04:58:21;97306.59;;;9.37;74.18
13553;BME280;6847;48.830;9.116;2023-03-25T05:00:51;97307.13;;;9.39;74.45
13553;BME280;6847;48.830;9.116;2023-03-25T05:03:19;97220.06;;;8.84;74.42
13553;BME280;6847;48.830;9.116;2023-03-25T05:05:48;97325.44;;;9.42;74.40
13553;BME280;6847;48.830;9.116;2023-03-25T05:08:17;97289.41;;;9.22;74.44
13553;BME280;6847;48.830;9.116;2023-03-25T05:10:47;97325.41;;;9.47;74.63
13553;BME280;6847;48.830;9.116;2023-03-25T05:13:16;97324.25;;;9.53;74.52
13553;BME280;6847;48.830;9.116;2023-03-25T05:15:46;97174.06;;;8.65;74.23
13553;BME280;6847;48.830;9.116;2023-03-25T05:18:16;97318.09;;;9.76;74.42
13553;BME280;6847;48.830;9.116;2023-03-25T05:20:45;97322.31;;;9.87;74.58
13553;BME280;6847;48.830;9.116;2023-03-25T05:23:15;97331.41;;;9.96;73.92
13553;BME280;6847;48.830;9.116;2023-03-25T05:25:43;97322.44;;;10.01;74.21
13553;BME280;6847;48.830;9.116;2023-03-25T05:28:11;97335.09;;;10.06;74.11
13553;BME280;6847;48.830;9.116;2023-03-25T05:30:42;97333.50;;;10.05;74.37
13553;BME280;6847;48.830;9.116;2023-03-25T05:33:14;97335.63;;;10.08;73.81
13553;BME280;6847;48.830;9.116;2023-03-25T05:35:41;97329.13;;;10.09;73.59
13553;BME280;6847;48.830;9.116;2023-03-25T05:38:10;97318.81;;;10.11;73.76
13553;BME280;6847;48.830;9.116;2023-03-25T05:40:38;97298.16;;;9.96;74.01
13553;BME280;6847;48.830;9.116;2023-03-25T05:43:05;97319.81;;;10.20;74.20
13553;BME280;6847;48.830;9.116;2023-03-25T05:45:33;97318.69;;;10.26;74.00
13553;BME280;6847;48.830;9.116;2023-03-25T05:48:00;97326.16;;;10.34;74.47
13553;BME280;6847;48.830;9.116;2023-03-25T05:50:47;97322.44;;;10.49;74.22
13553;BME280;6847;48.830;9.116;2023-03-25T05:53:14;97323.25;;;10.49;74.06
13553;BME280;6847;48.830;9.116;2023-03-25T05:55:41;97316.22;;;10.48;74.30
13553;BME280;6847;48.830;9.116;2023-03-25T05:58:08;97333.72;;;10.56;74.77
13553;BME280;6847;48.830;9.116;2023-03-25T06:00:37;97326.91;;;10.58;74.55
13553;BME280;6847;48.830;9.116;2023-03-25T06:03:05;97340.38;;;10.63;74.30
13553;BME280;6847;48.830;9.116;2023-03-25T06:05:33;97333.00;;;10.69;74.04
13553;BME280;6847;48.830;9.116;2023-03-25T06:08:02;97345.09;;;10.77;74.33
13553;BME280;6847;48.830;9.116;2023-03-25T06:10:29;97306.88;;;10.59;74.31
13553;BME280;6847;48.830;9.116;2023-03-25T06:12:56;97350.56;;;10.90;74.08
13553;BME280;6847;48.830;9.116;2023-03-25T06:15:23;97354.22;;;10.99;73.61
13553;BME280;6847;48.830;9.116;2023-03-25T06:17:57;97334.13;;;10.87;74.34
13553;BME280;6847;48.830;9.116;2023-03-25T06:20:27;97260.50;;;10.47;73.93
13553;BME280;6847;48.830;9.116;2023-03-25T06:22:54;97364.56;;;11.16;73.58
13553;BME280;6847;48.830;9.116;2023-03-25T06:25:22;97366.63;;;11.24;73.55
13553;BME280;6847;48.830;9.116;2023-03-25T06:27:51;97364.25;;;11.36;73.59
13553;BME280;6847;48.830;9.116;2023-03-25T06:30:19;97289.53;;;10.98;73.73
13553;BME280;6847;48.830;9.116;2023-03-25T06:32:47;97266.91;;;10.89;73.00
13553;BME280;6847;48.830;9.116;2023-03-25T06:35:15;97351.84;;;11.49;72.97
13553;BME280;6847;48.830;9.116;2023-03-25T06:37:44;97355.47;;;11.44;73.00
13553;BME280;6847;48.830;9.116;2023-03-25T06:40:14;97325.69;;;11.26;73.15
13553;BME280;6847;48.830;9.116;2023-03-25T06:42:43;97361.47;;;11.41;73.04
13553;BME280;6847;48.830;9.116;2023-03-25T06:45:10;97359.69;;;11.50;73.39
13553;BME280;6847;48.830;9.116;2023-03-25T06:47:39;97362.25;;;11.61;73.51
13553;BME280;6847;48.830;9.116;2023-03-25T06:50:06;97361.56;;;11.69;73.02
13553;BME280;6847;48.830;9.116;2023-03-25T06:52:33;97374.69;;;11.80;72.93
13553;BME280;6847;48.830;9.116;2023-03-25T06:55:00;97369.09;;;11.91;72.98
13553;BME280;6847;48.830;9.116;2023-03-25T06:57:28;97359.84;;;12.05;72.39
13553;BME280;6847;48.830;9.116;2023-03-25T06:59:59;97359.06;;;12.18;71.55
13553;BME280;6847;48.830;9.116;2023-03-25T07:02:26;97302.16;;;11.86;71.58
13553;BME280;6847;48.830;9.116;2023-03-25T07:04:54;97361.06;;;12.27;71.93
13553;BME280;6847;48.830;9.116;2023-03-25T07:07:23;97370.56;;;12.43;71.71
13553;BME280;6847;48.830;9.116;2023-03-25T07:09:52;97362.59;;;12.60;71.81
13553;BME280;6847;48.830;9.116;2023-03-25T07:12:21;97350.59;;;12.75;71.70
13553;BME280;6847;48.830;9.116;2023-03-25T07:14:50;97354.78;;;12.94;71.58
13553;BME280;6847;48.830;9.116;2023-03-25T07:17:18;97364.31;;;13.06;71.28
13553;BME280;6847;48.830;9.116;2023-03-25T07:19:45;97382.84;;;13.04;70.92
13553;BME280;6847;48.830;9.116;2023-03-25T07:22:12;97372.31;;;12.88;71.21
13553;BME280;6847;48.830;9.116;2023-03-25T07:24:45;97367.69;;;12.75;71.38
13553;BME280;6847;48.830;9.116;2023-03-25T07:27:13;97346.59;;;12.45;70.90
13553;BME280;6847;48.830;9.116;2023-03-25T07:29:40;97372.34;;;12.61;71.10
13553;BME280;6847;48.830;9.116;2023-03-25T07:32:08;97373.97;;;12.62;70.61
13553;BME280;6847;48.830;9.116;2023-03-25T07:34:36;97297.41;;;13.32;69.08
13553;BME280;6847;48.830;9.116;2023-03-25T07:37:06;97381.59;;;14.83;66.85
13553;BME280;6847;48.830;9.116;2023-03-25T07:39:33;97378.16;;;15.26;65.99
13553;BME280;6847;48.830;9.116;2023-03-25T07:42:00;97372.19;;;15.15;66.67
13553;BME280;6847;48.830;9.116;2023-03-25T07:44:27;97383.91;;;14.98;66.73
13553;BME280;6847;48.830;9.116;2023-03-25T07:46:53;97383.91;;;14.98;67.48
13553;BME280;6847;48.830;9.116;2023-03-25T07:49:20;97382.03;;;15.59;66.53
13553;BME280;6847;48.830;9.116;2023-03-25T07:52:25;97169.34;;;14.90;64.85
13553;BME280;6847;48.830;9.116;2023-03-25T07:54:55;97302.59;;;15.35;66.19
13553;BME280;6847;48.830;9.116;2023-03-25T07:57:23;97376.06;;;15.31;66.88
13553;BME280;6847;48.830;9.116;2023-03-25T07:59:49;97367.19;;;14.91;67.78
13553;BME280;6847;48.830;9.116;2023-03-25T08:02:20;97365.22;;;14.66;68.10
13553;BME280;6847;48.830;9.116;2023-03-25T08:04:46;97335.56;;;14.64;68.25
13553;BME280;6847;48.830;9.116;2023-03-25T08:07:17;97344.03;;;14.63;68.53
13553;BME280;6847;48.830;9.116;2023-03-25T08:09:47;97368.34;;;15.07;67.97
13553;BME280;6847;48.830;9.116;2023-03-25T08:12:14;97357.56;;;14.85;68.03
13553;BME280;6847;48.830;9.116;2023-03-25T08:14:41;97367.06;;;15.22;67.37
13553;BME280;6847;48.830;9.116;2023-03-25T08:17:09;97372.88;;;15.72;66.27
13553;BME280;6847;48.830;9.116;2023-03-25T08:19:36;97351.59;;;16.50;64.67
13553;BME280;6847;48.830;9.116;2023-03-25T08:22:05;97374.78;;;17.74;62.77
13553;BME280;6847;48.830;9.116;2023-03-25T08:24:31;97388.59;;;17.57;62.96
13553;BME280;6847;48.830;9.116;2023-03-25T08:26:59;97377.19;;;16.84;63.71
13553;BME280;6847;48.830;9.116;2023-03-25T08:29:26;97369.84;;;16.29;64.94
13553;BME280;6847;48.830;9.116;2023-03-25T08:31:54;97359.56;;;16.35;64.99
13553;BME280;6847;48.830;9.116;2023-03-25T08:34:22;97365.84;;;16.18;65.44
13553;BME280;6847;48.830;9.116;2023-03-25T08:36:51;97370.09;;;15.89;66.04
13553;BME280;6847;48.830;9.116;2023-03-25T08:39:21;97368.22;;;15.47;66.48
13553;BME280;6847;48.830;9.116;2023-03-25T08:41:55;97365.28;;;15.00;66.53
13553;BME280;6847;48.830;9.116;2023-03-25T08:44:25;97380.69;;;14.48;66.92
13553;BME280;6847;48.830;9.116;2023-03-25T08:46:52;97387.41;;;13.89;67.26
13553;BME280;6847;48.830;9.116;2023-03-25T08:49:19;97391.13;;;13.48;67.37
13553;BME280;6847;48.830;9.116;2023-03-25T08:51:45;97390.78;;;13.27;67.83
13553;BME280;6847;48.830;9.116;2023-03-25T08:54:12;97378.50;;;13.03;68.28
13553;BME280;6847;48.830;9.116;2023-03-25T08:56:40;97396.56;;;12.85;67.93
13553;BME280;6847;48.830;9.116;2023-03-25T08:59:06;97387.84;;;12.60;68.11
13553;BME280;6847;48.830;9.116;2023-03-25T09:01:34;97408.56;;;12.43;68.37
13553;BME280;6847;48.830;9.116;2023-03-25T09:04:03;97398.34;;;12.07;68.72
13553;BME280;6847;48.830;9.116;2023-03-25T09:06:30;97403.03;;;11.88;69.19
13553;BME280;6847;48.830;9.116;2023-03-25T09:08:56;97375.22;;;11.64;68.88
13553;BME280;6847;48.830;9.116;2023-03-25T09:11:26;97359.56;;;11.93;69.19
13553;BME280;6847;48.830;9.116;2023-03-25T09:13:53;97373.16;;;12.62;69.21
13553;BME280;6847;48.830;9.116;2023-03-25T09:16:22;97371.50;;;12.88;68.89
13553;BME280;6847;48.830;9.116;2023-03-25T09:18:51;97390.22;;;13.17;68.99
13553;BME280;6847;48.830;9.116;2023-03-25T09:21:22;97372.56;;;13.95;67.98
13553;BME280;6847;48.830;9.116;2023-03-25T09:23:51;97379.44;;;14.23;67.65
13553;BME280;6847;48.830;9.116;2023-03-25T09:26:19;97338.81;;;14.04;67.98
13553;BME280;6847;48.830;9.116;2023-03-25T09:28:45;97378.81;;;14.26;68.67
13553;BME280;6847;48.830;9.116;2023-03-25T09:31:12;97375.69;;;14.41;69.04
13553;BME280;6847;48.830;9.116;2023-03-25T09:33:40;97315.97;;;14.45;69.09
13553;BME280;6847;48.830;9.116;2023-03-25T09:36:10;97362.53;;;16.50;67.12
13553;BME280;6847;48.830;9.116;2023-03-25T09:38:37;97350.94;;;17.54;65.20
13553;BME280;6847;48.830;9.116;2023-03-25T09:41:19;97338.66;;;17.60;64.90
13553;BME280;6847;48.830;9.116;2023-03-25T09:43:55;97234.59;;;16.52;66.33
13553;BME280;6847;48.830;9.116;2023-03-25T09:46:25;97373.31;;;18.67;64.55
13553;BME280;6847;48.830;9.116;2023-03-25T09:48:54;97362.00;;;18.93;64.02
13553;BME280;6847;48.830;9.116;2023-03-25T09:51:32;97372.75;;;18.85;64.70
13553;BME280;6847;48.830;9.116;2023-03-25T09:54:17;97362.28;;;17.85;66.38
13553;BME280;6847;48.830;9.116;2023-03-25T09:56:48;97366.59;;;17.32;67.09
13553;BME280;6847;48.830;9.116;2023-03-25T09:59:17;97369.50;;;17.27;66.90
13553;BME280;6847;48.830;9.116;2023-03-25T10:01:49;97369.13;;;18.24;65.40
13553;BME280;6847;48.830;9.116;2023-03-25T10:04:45;97366.81;;;19.88;62.50
13553;BME280;6847;48.830;9.116;2023-03-25T10:07:28;97374.03;;;20.83;60.49
13553;BME280;6847;48.830;9.116;2023-03-25T10:10:02;97363.63;;;21.62;59.30
13553;BME280;6847;48.830;9.116;2023-03-25T10:12:37;97360.56;;;21.29;60.76
13553;BME280;6847;48.830;9.116;2023-03-25T10:15:20;97355.16;;;20.66;61.58
13553;BME280;6847;48.830;9.116;2023-03-25T10:17:55;97351.63;;;21.35;60.97
13553;BME280;6847;48.830;9.116;2023-03-25T10:20:37;97368.38;;;22.42;59.09
13553;BME280;6847;48.830;9.116;2023-03-25T10:23:14;97364.31;;;23.35;57.66
13553;BME280;6847;48.830;9.116;2023-03-25T10:25:47;97271.03;;;22.19;58.11
13553;BME280;6847;48.830;9.116;2023-03-25T10:28:25;97360.38;;;22.83;58.46
13553;BME280;6847;48.830;9.116;2023-03-25T10:30:53;97359.03;;;22.50;58.82
13553;BME280;6847;48.830;9.116;2023-03-25T10:33:26;97354.47;;;21.39;60.68
13553;BME280;6847;48.830;9.116;2023-03-25T10:35:56;97342.84;;;20.16;61.93
13553;BME280;6847;48.830;9.116;2023-03-25T10:38:27;97304.63;;;18.88;63.27
13553;BME280;6847;48.830;9.116;2023-03-25T10:41:02;97232.91;;;18.25;63.08
13553;BME280;6847;48.830;9.116;2023-03-25T10:43:33;97246.16;;;18.23;63.57
13553;BME280;6847;48.830;9.116;2023-03-25T10:46:10;97347.16;;;18.69;62.64
13553;BME280;6847;48.830;9.116;2023-03-25T10:48:39;97346.22;;;18.41;62.75
13553;BME280;6847;48.830;9.116;2023-03-25T10:51:09;97337.25;;;18.07;62.89
13553;BME280;6847;48.830;9.116;2023-03-25T10:53:38;97313.72;;;17.41;62.60
13553;BME280;6847;48.830;9.116;2023-03-25T10:56:12;97330.94;;;17.20;61.82
13553;BME280;6847;48.830;9.116;2023-03-25T10:58:43;97338.09;;;17.87;61.13
13553;BME280;6847;48.830;9.116;2023-03-25T11:01:13;97343.72;;;18.84;59.28
13553;BME280;6847;48.830;9.116;2023-03-25T11:03:43;97300.47;;;19.46;57.92
13553;BME280;6847;48.830;9.116;2023-03-25T11:06:20;97333.63;;;20.24;56.54
13553;BME280;6847;48.830;9.116;2023-03-25T11:09:12;97331.53;;;20.65;56.20
13553;BME280;6847;48.830;9.116;2023-03-25T11:11:41;97271.03;;;20.65;55.57
13553;BME280;6847;48.830;9.116;2023-03-25T11:14:09;97321.84;;;21.22;55.30
13553;BME280;6847;48.830;9.116;2023-03-25T11:16:41;97332.44;;;21.39;55.07
13553;BME280;6847;48.830;9.116;2023-03-25T11:19:16;97330.13;;;21.41;54.95
13553;BME280;6847;48.830;9.116;2023-03-25T11:21:45;97345.22;;;21.12;54.85
13553;BME280;6847;48.830;9.116;2023-03-25T11:24:17;97340.97;;;20.99;54.97
13553;BME280;6847;48.830;9.116;2023-03-25T11:26:45;97330.63;;;20.61;55.40
13553;BME280;6847;48.830;9.116;2023-03-25T11:29:17;97332.22;;;20.30;56.00
13553;BME280;6847;48.830;9.116;2023-03-25T11:31:55;97326.34;;;20.79;55.21
13553;BME280;6847;48.830;9.116;2023-03-25T11:34:23;97268.97;;;20.62;55.09
13553;BME280;6847;48.830;9.116;2023-03-25T11:36:52;97257.13;;;20.42;55.20
13553;BME280;6847;48.830;9.116;2023-03-25T11:39:29;97320.78;;;21.11;54.67
13553;BME280;6847;48.830;9.116;2023-03-25T11:41:58;97326.13;;;21.38;54.23
13553;BME280;6847;48.830;9.116;2023-03-25T11:44:27;97325.19;;;21.31;54.21
13553;BME280;6847;48.830;9.116;2023-03-25T11:46:57;97315.19;;;21.81;54.02
13553;BME280;6847;48.830;9.116;2023-03-25T11:49:25;97318.47;;;22.28;53.16
13553;BME280;6847;48.830;9.116;2023-03-25T11:51:58;97327.41;;;22.44;52.76
13553;BME280;6847;48.830;9.116;2023-03-25T11:54:27;97138.09;;;20.42;53.30
13553;BME280;6847;48.830;9.116;2023-03-25T11:56:55;97321.59;;;20.45;54.20
13553;BME280;6847;48.830;9.116;2023-03-25T11:59:24;97308.56;;;19.82;54.86
13553;BME280;6847;48.830;9.116;2023-03-25T12:02:00;97327.50;;;19.72;54.25
13553;BME280;6847;48.830;9.116;2023-03-25T12:04:28;97370.31;;;19.73;53.86
13553;BME280;6847;48.830;9.116;2023-03-25T12:06:59;97242.22;;;18.97;53.45
13553;BME280;6847;48.830;9.116;2023-03-25T12:09:29;97297.25;;;19.16;53.96
13553;BME280;6847;48.830;9.116;2023-03-25T12:12:06;97318.72;;;19.26;53.79
13553;BME280;6847;48.830;9.116;2023-03-25T12:14:44;97310.78;;;19.09;53.64
13553;BME280;6847;48.830;9.116;2023-03-25T12:17:20;97318.56;;;18.82;53.66
13553;BME280;6847;48.830;9.116;2023-03-25T12:19:59;97321.22;;;18.79;53.81
13553;BME280;6847;48.830;9.116;2023-03-25T12:22:50;97330.88;;;18.52;53.88
13553;BME280;6847;48.830;9.116;2023-03-25T12:25:24;97315.47;;;18.35;54.39
13553;BME280;6847;48.830;9.116;2023-03-25T12:28:01;97327.47;;;18.43;54.06
13553;BME280;6847;48.830;9.116;2023-03-25T12:30:40;97317.59;;;18.05;54.05
13553;BME280;6847;48.830;9.116;2023-03-25T12:33:24;97338.75;;;17.84;53.78
13553;BME280;6847;48.830;9.116;2023-03-25T12:36:08;97320.00;;;17.41;53.98
13553;BME280;6847;48.830;9.116;2023-03-25T12:38:45;97339.47;;;17.39;54.37
13553;BME280;6847;48.830;9.116;2023-03-25T12:41:33;97372.16;;;17.15;54.92
13553;BME280;6847;48.830;9.116;2023-03-25T12:44:06;97355.25;;;16.25;55.29
13553;BME280;6847;48.830;9.116;2023-03-25T12:46:56;97377.53;;;15.63;56.51
13553;BME280;6847;48.830;9.116;2023-03-25T12:49:46;97365.16;;;15.40;57.24
13553;BME280;6847;48.830;9.116;2023-03-25T12:52:20;97344.13;;;15.14;57.38
13553;BME280;6847;48.830;9.116;2023-03-25T12:55:00;97365.00;;;15.45;57.83
13553;BME280;6847;48.830;9.116;2023-03-25T12:57:46;97367.88;;;15.91;57.89
13553;BME280;6847;48.830;9.116;2023-03-25T13:00:25;97359.34;;;16.40;57.30
13553;BME280;6847;48.830;9.116;2023-03-25T13:03:20;97343.91;;;16.82;56.90
13553;BME280;6847;48.830;9.116;2023-03-25T13:05:59;97357.66;;;17.23;56.16
13553;BME280;6847;48.830;9.116;2023-03-25T13:08:37;97295.31;;;17.08;55.83
13553;BME280;6847;48.830;9.116;2023-03-25T13:11:08;97356.53;;;17.57;55.35
13553;BME280;6847;48.830;9.116;2023-03-25T13:13:41;97237.41;;;17.06;55.12
13553;BME280;6847;48.830;9.116;2023-03-25T13:16:12;97355.88;;;17.81;55.42
13553;BME280;6847;48.830;9.116;2023-03-25T13:18:45;97281.84;;;17.03;55.34
13553;BME280;6847;48.830;9.116;2023-03-25T13:21:16;97340.78;;;17.54;55.57
13553;BME280;6847;48.830;9.116;2023-03-25T13:23:50;97350.28;;;17.78;55.47
13553;BME280;6847;48.830;9.116;2023-03-25T13:26:20;97351.78;;;17.87;55.26
13553;BME280;6847;48.830;9.116;2023-03-25T13:28:54;97328.03;;;17.58;54.91
13553;BME280;6847;48.830;9.116;2023-03-25T13:31:27;97355.72;;;17.98;54.72
13553;BME280;6847;48.830;9.116;2023-03-25T13:34:07;97361.88;;;18.07;54.52
13553;BME280;6847;48.830;9.116;2023-03-25T13:36:44;97365.38;;;18.29;54.28